Time;durP1;ratioP1;P1;durP2;ratioP2;P2;SDS_P1;SDS_P2;PMS_P1;PMS_P2;Temp;Humidity;BMP_temperature;BMP_pressure;BME280_temperature;BME280_humidity;BME280_pressure;Samples;Min_cycle;Max_cycle;Signal;HPM_P1;HPM_P2
2022/04/30 00:02:59;;;;;;;24.20;12.63;;;;;;;;;;6314786;28;20059;-82
2022/04/30 00:06:00;;;;;;;24.98;12.32;;;;;;;;;;6321898;28;20043;-82
2022/04/30 00:09:02;;;;;;;25.75;11.82;;;;;;;;;;6322048;28;20052;-80
2022/04/30 00:12:05;;;;;;;21.05;11.77;;;;;;;;;;6319763;28;20097;-81
2022/04/30 00:15:08;;;;;;;21.52;11.38;;;;;;;;;;6303691;28;20494;-81
2022/04/30 00:18:10;;;;;;;22.58;12.23;;;;;;;;;;6302775;28;20060;-81
2022/04/30 00:21:12;;;;;;;18.35;10.77;;;;;;;;;;6321881;28;20044;-82
2022/04/30 00:24:14;;;;;;;24.25;11.88;;;;;;;;;;6295720;28;20068;-82
2022/04/30 00:27:17;;;;;;;20.75;11.80;;;;;;;;;;6298000;28;20087;-81
2022/04/30 00:30:18;;;;;;;24.52;12.05;;;;;;;;;;6287354;28;20040;-81
2022/04/30 00:33:20;;;;;;;21.83;11.80;;;;;;;;;;6319034;28;20067;-81
2022/04/30 00:36:22;;;;;;;20.70;11.60;;;;;;;;;;6303372;28;20052;-82
2022/04/30 00:39:24;;;;;;;24.40;11.23;;;;;;;;;;6319396;28;20040;-81
2022/04/30 00:42:26;;;;;;;21.13;11.13;;;;;;;;;;6267661;28;20103;-83
2022/04/30 00:45:27;;;;;;;22.45;11.05;;;;;;;;;;6253420;28;20088;-82
2022/04/30 00:48:29;;;;;;;22.10;11.38;;;;;;;;;;6314779;28;20044;-82
2022/04/30 00:51:31;;;;;;;21.05;10.77;;;;;;;;;;6318660;28;20525;-82
2022/04/30 00:54:37;;;;;;;22.33;12.13;;;;;;;;;;6312197;28;20114;-81
2022/04/30 00:57:43;;;;;;;23.55;11.15;;;;;;;;;;6289729;28;20065;-81
2022/04/30 01:00:48;;;;;;;21.58;12.25;;;;;;;;;;6267395;28;20048;-81
2022/04/30 01:03:58;;;;;;;21.90;11.30;;;;;;;;;;6243521;28;20060;-80
2022/04/30 01:07:07;;;;;;;21.23;11.98;;;;;;;;;;6261671;28;20045;-82
2022/04/30 01:10:09;;;;;;;22.23;11.32;;;;;;;;;;6261189;28;20872;-80
2022/04/30 01:13:12;;;;;;;24.15;11.95;;;;;;;;;;6312293;28;20055;-81
2022/04/30 01:16:15;;;;;;;21.58;11.75;;;;;;;;;;6293768;28;20097;-80
2022/04/30 01:19:19;;;;;;;21.52;11.15;;;;;;;;;;6318201;28;20051;-81
2022/04/30 01:22:46;;;;;;;21.15;11.02;;;;;;;;;;6317463;28;20559;-81
2022/04/30 01:25:50;;;;;;;25.23;12.20;;;;;;;;;;6318490;28;20039;-81
2022/04/30 01:28:53;;;;;;;21.63;10.98;;;;;;;;;;6319928;28;20093;-81
2022/04/30 01:38:37;;;;;;;23.10;12.23;;;;;;;;;;6269934;28;20604;-81
2022/04/30 01:41:39;;;;;;;24.90;12.32;;;;;;;;;;6299523;28;20048;-81
2022/04/30 01:44:44;;;;;;;22.15;11.60;;;;;;;;;;6277819;28;20632;-81
2022/04/30 01:47:47;;;;;;;21.08;11.25;;;;;;;;;;6310356;28;20525;-81
2022/04/30 01:50:48;;;;;;;22.55;12.63;;;;;;;;;;6300232;28;20060;-81
2022/04/30 01:53:50;;;;;;;23.48;11.73;;;;;;;;;;6301651;28;20128;-81
2022/04/30 01:56:52;;;;;;;21.95;11.50;;;;;;;;;;6274289;28;20390;-81
2022/04/30 01:59:57;;;;;;;23.85;11.27;;;;;;;;;;6287251;28;20049;-81
2022/04/30 02:03:08;;;;;;;19.75;11.23;;;;;;;;;;6282123;28;20045;-81
2022/04/30 02:06:10;;;;;;;20.38;11.10;;;;;;;;;;6270511;28;20049;-82
2022/04/30 02:09:14;;;;;;;23.30;12.15;;;;;;;;;;6271878;28;20068;-82
2022/04/30 02:12:16;;;;;;;19.38;11.57;;;;;;;;;;6277583;28;20093;-81
2022/04/30 02:15:19;;;;;;;26.33;12.48;;;;;;;;;;6240794;28;20135;-81
2022/04/30 02:18:22;;;;;;;22.65;12.02;;;;;;;;;;6270976;28;20069;-82
2022/04/30 02:21:25;;;;;;;24.23;12.68;;;;;;;;;;6272647;28;20053;-82
2022/04/30 02:24:27;;;;;;;24.30;12.50;;;;;;;;;;6274756;28;20057;-80
2022/04/30 02:27:29;;;;;;;22.58;11.73;;;;;;;;;;6306222;28;20462;-82
2022/04/30 02:30:35;;;;;;;23.08;12.18;;;;;;;;;;6323487;28;20178;-81
2022/04/30 02:33:39;;;;;;;23.40;12.05;;;;;;;;;;6301586;28;20052;-82
2022/04/30 02:36:41;;;;;;;21.80;11.95;;;;;;;;;;6292366;28;20075;-82
2022/04/30 02:39:45;;;;;;;25.77;13.13;;;;;;;;;;6290872;28;20078;-82
2022/04/30 02:42:47;;;;;;;;;;;;;;;;;;6280428;28;20133;-81
2022/04/30 02:45:50;;;;;;;26.02;13.20;;;;;;;;;;6283275;28;19924;-80
2022/04/30 02:48:52;;;;;;;24.88;13.63;;;;;;;;;;6271960;28;20053;-82
2022/04/30 02:51:54;;;;;;;26.88;13.88;;;;;;;;;;6255033;28;20040;-82
2022/04/30 02:54:55;;;;;;;25.02;14.05;;;;;;;;;;6274098;28;20061;-80
2022/04/30 03:01:19;;;;;;;26.77;13.52;;;;;;;;;;6296573;28;20056;-81
2022/04/30 03:04:37;;;;;;;31.05;14.57;;;;;;;;;;6280562;28;20051;-81
2022/04/30 03:07:40;;;;;;;26.88;13.82;;;;;;;;;;6298896;28;20044;-82
2022/04/30 03:10:46;;;;;;;23.90;13.60;;;;;;;;;;6297246;28;20098;-81
2022/04/30 03:13:48;;;;;;;24.67;13.85;;;;;;;;;;6323243;28;20051;-82
2022/04/30 03:23:37;;;;;;;26.30;14.07;;;;;;;;;;6294012;28;20341;-79
2022/04/30 03:26:38;;;;;;;25.38;13.75;;;;;;;;;;6287248;28;20105;-82
2022/04/30 03:29:40;;;;;;;26.13;13.52;;;;;;;;;;6293011;28;20075;-82
2022/04/30 03:32:42;;;;;;;26.30;13.30;;;;;;;;;;6297493;28;20039;-80
2022/04/30 03:35:44;;;;;;;24.98;13.75;;;;;;;;;;6291647;28;20080;-82
2022/04/30 03:38:47;;;;;;;23.02;12.07;;;;;;;;;;6259288;28;20095;-80
2022/04/30 03:41:48;;;;;;;17.42;10.45;;;;;;;;;;6314505;28;20060;-80
2022/04/30 03:44:53;;;;;;;23.02;11.65;;;;;;;;;;6291337;28;20067;-80
2022/04/30 03:47:54;;;;;;;20.23;10.52;;;;;;;;;;6299088;28;20424;-81
2022/04/30 03:50:57;;;;;;;13.73;8.68;;;;;;;;;;6295977;28;20051;-81
2022/04/30 03:53:59;;;;;;;13.90;8.63;;;;;;;;;;6295642;28;20151;-79
2022/04/30 03:57:00;;;;;;;16.73;9.05;;;;;;;;;;6296644;28;20623;-81
2022/04/30 04:00:04;;;;;;;15.40;9.25;;;;;;;;;;6296153;28;20552;-79
2022/04/30 04:03:14;;;;;;;22.08;11.57;;;;;;;;;;6286532;28;20100;-81
2022/04/30 04:06:16;;;;;;;22.20;12.90;;;;;;;;;;6293200;28;20052;-82
2022/04/30 04:09:17;;;;;;;25.27;13.30;;;;;;;;;;6304520;28;20086;-82
2022/04/30 04:12:19;;;;;;;21.85;12.70;;;;;;;;;;6303660;28;20114;-83
2022/04/30 04:18:41;;;;;;;25.73;13.43;;;;;;;;;;6314510;28;20052;-81
2022/04/30 04:21:43;;;;;;;25.05;12.80;;;;;;;;;;6280266;28;20107;-81
2022/04/30 04:28:05;;;;;;;21.63;12.20;;;;;;;;;;6318106;28;20169;-83
2022/04/30 04:31:07;;;;;;;21.90;11.85;;;;;;;;;;6314636;28;20048;-83
2022/04/30 04:34:08;;;;;;;21.13;11.30;;;;;;;;;;6302436;28;20133;-82
2022/04/30 04:37:10;;;;;;;19.88;11.60;;;;;;;;;;6302777;28;20103;-82
2022/04/30 04:40:14;;;;;;;21.38;11.80;;;;;;;;;;6293276;28;20083;-82
2022/04/30 04:43:16;;;;;;;18.60;10.52;;;;;;;;;;6295346;28;20064;-82
2022/04/30 04:46:17;;;;;;;20.45;11.07;;;;;;;;;;6298223;28;20067;-81
2022/04/30 04:49:19;;;;;;;20.02;11.60;;;;;;;;;;6309999;28;20048;-79
2022/04/30 04:52:21;;;;;;;20.75;11.40;;;;;;;;;;6307100;28;20067;-81
2022/04/30 04:55:23;;;;;;;17.55;10.00;;;;;;;;;;6287771;28;20044;-83
2022/04/30 04:58:24;;;;;;;20.48;10.43;;;;;;;;;;6310772;28;20068;-79
2022/04/30 05:01:26;;;;;;;18.65;10.65;;;;;;;;;;6309582;28;20127;-81
2022/04/30 05:04:28;;;;;;;19.52;10.95;;;;;;;;;;6318071;28;20044;-81
2022/04/30 05:07:30;;;;;;;18.13;10.20;;;;;;;;;;6287004;28;20060;-82
2022/04/30 05:10:31;;;;;;;16.75;10.20;;;;;;;;;;6295998;28;20079;-80
2022/04/30 05:13:33;;;;;;;17.48;10.27;;;;;;;;;;6294341;28;20120;-82
2022/04/30 05:16:34;;;;;;;17.30;10.07;;;;;;;;;;6282223;28;20722;-81
2022/04/30 05:19:36;;;;;;;17.60;9.90;;;;;;;;;;6306336;28;20053;-81
2022/04/30 05:22:38;;;;;;;18.85;9.85;;;;;;;;;;6275795;28;20066;-82
2022/04/30 05:25:40;;;;;;;17.48;9.10;;;;;;;;;;6296381;28;20060;-82
2022/04/30 05:28:43;;;;;;;17.45;9.27;;;;;;;;;;6294197;28;20045;-81
2022/04/30 05:31:44;;;;;;;16.15;9.85;;;;;;;;;;6281504;28;20048;-81
2022/04/30 05:34:46;;;;;;;16.98;9.20;;;;;;;;;;6295636;28;20048;-80
2022/04/30 05:37:48;;;;;;;17.02;9.15;;;;;;;;;;6295992;28;20048;-81
2022/04/30 05:40:50;;;;;;;16.52;9.35;;;;;;;;;;6304528;28;20158;-81
2022/04/30 05:43:51;;;;;;;16.15;9.07;;;;;;;;;;6280762;28;20907;-81
2022/04/30 05:46:53;;;;;;;16.17;9.45;;;;;;;;;;6277772;28;20166;-81
2022/04/30 05:49:55;;;;;;;18.52;10.25;;;;;;;;;;6324448;28;20048;-81
2022/04/30 05:52:56;;;;;;;16.63;8.80;;;;;;;;;;6324391;28;20148;-79
2022/04/30 05:55:58;;;;;;;16.23;9.20;;;;;;;;;;6321839;28;20055;-81
2022/04/30 05:59:00;;;;;;;16.48;9.68;;;;;;;;;;6327808;28;20095;-81
2022/04/30 06:02:01;;;;;;;16.13;8.73;;;;;;;;;;6298072;28;20060;-81
2022/04/30 06:05:09;;;;;;;17.60;9.18;;;;;;;;;;6302604;28;20473;-82
2022/04/30 06:08:11;;;;;;;16.00;9.25;;;;;;;;;;6300832;28;20060;-82
2022/04/30 06:11:13;;;;;;;16.80;8.98;;;;;;;;;;6319304;28;20044;-81
2022/04/30 06:14:15;;;;;;;16.73;9.65;;;;;;;;;;6325050;28;20492;-81
2022/04/30 06:17:16;;;;;;;16.70;8.85;;;;;;;;;;6284633;28;20146;-82
2022/04/30 06:20:18;;;;;;;17.02;9.45;;;;;;;;;;6290496;28;20099;-81
2022/04/30 06:23:22;;;;;;;16.08;9.15;;;;;;;;;;6298660;28;20048;-83
2022/04/30 06:26:24;;;;;;;15.27;8.93;;;;;;;;;;6298494;28;20040;-82
2022/04/30 06:29:25;;;;;;;17.35;9.15;;;;;;;;;;6297766;28;20044;-82
2022/04/30 06:32:27;;;;;;;16.10;9.02;;;;;;;;;;6292585;28;20036;-82
2022/04/30 06:35:29;;;;;;;14.65;8.93;;;;;;;;;;6325533;28;20043;-82
2022/04/30 06:38:34;;;;;;;14.65;8.43;;;;;;;;;;6307067;28;20098;-81
2022/04/30 06:41:35;;;;;;;17.42;9.00;;;;;;;;;;6321844;28;20555;-81
2022/04/30 06:44:37;;;;;;;17.90;9.63;;;;;;;;;;6297647;28;20060;-81
2022/04/30 06:47:40;;;;;;;16.70;9.05;;;;;;;;;;6297796;28;20051;-83
2022/04/30 06:50:41;;;;;;;17.58;9.13;;;;;;;;;;6300326;28;20052;-82
2022/04/30 06:57:16;;;;;;;17.90;9.50;;;;;;;;;;6298769;28;20048;-80
2022/04/30 07:03:38;;;;;;;14.98;8.45;;;;;;;;;;6281524;28;20106;-82
2022/04/30 07:06:39;;;;;;;15.05;9.02;;;;;;;;;;6297376;28;20063;-81
2022/04/30 07:09:42;;;;;;;16.80;8.65;;;;;;;;;;6298549;28;20044;-81
2022/04/30 07:12:43;;;;;;;15.07;9.02;;;;;;;;;;6280970;28;20053;-81
2022/04/30 07:15:45;;;;;;;16.80;9.40;;;;;;;;;;6281236;28;20050;-82
2022/04/30 07:18:47;;;;;;;17.77;9.18;;;;;;;;;;6285669;28;20276;-81
2022/04/30 07:21:49;;;;;;;14.15;8.38;;;;;;;;;;6293134;28;20045;-85
2022/04/30 07:24:51;;;;;;;15.60;8.30;;;;;;;;;;6280689;28;20051;-81
2022/04/30 07:27:52;;;;;;;16.40;8.82;;;;;;;;;;6280631;28;20059;-83
2022/04/30 07:30:55;;;;;;;13.90;8.15;;;;;;;;;;6296620;28;20118;-84
2022/04/30 07:33:56;;;;;;;14.63;8.47;;;;;;;;;;6273088;28;20049;-82
2022/04/30 07:36:58;;;;;;;17.95;9.77;;;;;;;;;;6273686;28;20595;-83
2022/04/30 07:40:00;;;;;;;15.65;8.98;;;;;;;;;;6260214;28;20055;-82
2022/04/30 07:43:04;;;;;;;17.25;12.05;;;;;;;;;;6323465;28;20068;-83
2022/04/30 07:46:06;;;;;;;17.05;10.43;;;;;;;;;;6309569;28;20039;-82
2022/04/30 07:49:12;;;;;;;14.52;8.38;;;;;;;;;;6321318;28;20044;-83
2022/04/30 07:52:15;;;;;;;14.02;8.30;;;;;;;;;;6286631;28;20044;-84
2022/04/30 07:55:17;;;;;;;14.63;8.50;;;;;;;;;;6286191;28;20158;-83
2022/04/30 07:58:18;;;;;;;13.88;7.88;;;;;;;;;;6302807;28;20439;-85
2022/04/30 08:01:21;;;;;;;13.35;7.63;;;;;;;;;;6304854;28;20044;-79
2022/04/30 08:04:22;;;;;;;13.27;7.30;;;;;;;;;;6272803;28;20052;-77
2022/04/30 08:07:24;;;;;;;13.70;7.55;;;;;;;;;;6289821;28;20049;-79
2022/04/30 08:10:26;;;;;;;14.25;7.30;;;;;;;;;;6289308;28;20032;-78
2022/04/30 08:13:27;;;;;;;13.35;7.72;;;;;;;;;;6290448;28;20788;-79
2022/04/30 08:16:29;;;;;;;11.80;7.32;;;;;;;;;;6274469;28;20051;-78
2022/04/30 08:19:31;;;;;;;13.32;7.57;;;;;;;;;;6288850;28;20103;-77
2022/04/30 08:22:39;;;;;;;12.90;7.82;;;;;;;;;;6285913;28;20050;-79
2022/04/30 08:25:40;;;;;;;14.30;7.43;;;;;;;;;;6285638;28;20618;-79
2022/04/30 08:28:47;;;;;;;13.63;7.85;;;;;;;;;;6284936;28;20063;-77
2022/04/30 08:31:49;;;;;;;14.43;8.18;;;;;;;;;;6282129;28;20061;-80
2022/04/30 08:34:52;;;;;;;14.35;8.25;;;;;;;;;;6303471;28;20375;-81
2022/04/30 08:37:54;;;;;;;16.95;8.40;;;;;;;;;;6278627;28;20040;-80
2022/04/30 08:40:56;;;;;;;14.45;8.60;;;;;;;;;;6295421;28;20053;-80
2022/04/30 08:43:57;;;;;;;13.27;8.27;;;;;;;;;;6298433;28;20040;-82
2022/04/30 08:46:59;;;;;;;14.50;8.20;;;;;;;;;;6296576;28;20147;-81
2022/04/30 08:50:02;;;;;;;15.40;8.60;;;;;;;;;;6302987;28;20048;-81
2022/04/30 08:53:04;;;;;;;14.90;8.70;;;;;;;;;;6302993;28;20409;-81
2022/04/30 08:56:07;;;;;;;15.65;8.65;;;;;;;;;;6299698;28;20063;-81
2022/04/30 08:59:09;;;;;;;15.32;8.35;;;;;;;;;;6280270;28;20040;-81
2022/04/30 09:02:16;;;;;;;14.20;8.55;;;;;;;;;;6305426;28;20124;-81
2022/04/30 09:05:18;;;;;;;16.45;8.43;;;;;;;;;;6273329;28;20045;-82
2022/04/30 09:08:20;;;;;;;15.25;7.82;;;;;;;;;;6281579;28;20051;-82
2022/04/30 09:11:28;;;;;;;13.63;7.50;;;;;;;;;;6299281;28;20096;-82
2022/04/30 09:14:30;;;;;;;16.95;8.90;;;;;;;;;;6297447;28;20044;-83
2022/04/30 09:17:33;;;;;;;15.70;9.48;;;;;;;;;;6298067;28;20051;-82
2022/04/30 09:20:49;;;;;;;16.58;8.13;;;;;;;;;;6298742;28;20040;-82
2022/04/30 09:23:53;;;;;;;16.67;8.13;;;;;;;;;;6300716;28;20052;-82
2022/04/30 09:27:02;;;;;;;15.32;8.38;;;;;;;;;;6302855;28;20082;-82
2022/04/30 09:30:14;;;;;;;15.73;8.85;;;;;;;;;;6325514;28;20052;-81
2022/04/30 09:33:19;;;;;;;14.50;7.78;;;;;;;;;;6320707;28;20089;-83
2022/04/30 09:39:41;;;;;;;12.65;6.97;;;;;;;;;;6299666;28;20044;-82
2022/04/30 09:42:46;;;;;;;15.02;7.53;;;;;;;;;;6295468;28;20110;-83
2022/04/30 09:45:47;;;;;;;14.23;8.10;;;;;;;;;;6282847;28;20051;-82
2022/04/30 09:55:32;;;;;;;12.52;7.78;;;;;;;;;;6291615;28;20061;-81
2022/04/30 09:58:39;;;;;;;14.52;7.72;;;;;;;;;;6294005;28;20052;-82
2022/04/30 10:01:44;;;;;;;11.77;7.80;;;;;;;;;;6284791;28;20048;-82
2022/04/30 10:04:47;;;;;;;14.13;7.25;;;;;;;;;;6322207;28;20052;-82
2022/04/30 10:07:50;;;;;;;13.30;7.22;;;;;;;;;;6310301;28;20056;-82
2022/04/30 10:11:02;;;;;;;12.95;7.10;;;;;;;;;;6302553;28;20044;-82
2022/04/30 10:14:24;;;;;;;12.52;7.32;;;;;;;;;;6297308;28;20110;-83
2022/04/30 10:17:28;;;;;;;12.38;7.05;;;;;;;;;;6307964;28;20052;-83
2022/04/30 10:20:37;;;;;;;12.98;8.23;;;;;;;;;;6301501;28;20048;-82
2022/04/30 10:23:38;;;;;;;13.13;7.80;;;;;;;;;;6295957;28;20044;-81
2022/04/30 10:27:00;;;;;;;11.02;7.18;;;;;;;;;;6322172;28;20043;-82
2022/04/30 10:30:03;;;;;;;12.32;7.90;;;;;;;;;;6334539;28;20056;-81
2022/04/30 10:33:07;;;;;;;12.77;7.68;;;;;;;;;;6315490;28;20058;-83
2022/04/30 10:36:11;;;;;;;13.57;7.80;;;;;;;;;;6338446;28;20070;-79
2022/04/30 10:39:18;;;;;;;14.55;7.07;;;;;;;;;;6332115;28;20033;-80
2022/04/30 10:42:31;;;;;;;12.55;7.25;;;;;;;;;;6313014;28;20052;-81
2022/04/30 10:45:33;;;;;;;15.20;7.63;;;;;;;;;;6295580;28;20036;-82
2022/04/30 10:48:35;;;;;;;11.88;7.00;;;;;;;;;;6310331;28;20032;-79
2022/04/30 10:51:39;;;;;;;10.48;6.90;;;;;;;;;;6306907;28;20044;-79
2022/04/30 10:54:43;;;;;;;10.35;6.90;;;;;;;;;;6298873;28;20196;-80
2022/04/30 10:57:45;;;;;;;13.02;7.20;;;;;;;;;;6299001;28;20048;-80
2022/04/30 11:00:47;;;;;;;12.77;7.22;;;;;;;;;;6301422;28;20048;-80
2022/04/30 11:03:50;;;;;;;14.68;7.32;;;;;;;;;;6301319;28;20052;-81
2022/04/30 11:06:53;;;;;;;14.75;7.70;;;;;;;;;;6314819;28;20058;-80
2022/04/30 11:09:56;;;;;;;12.82;7.47;;;;;;;;;;6300161;28;20032;-80
2022/04/30 11:13:05;;;;;;;11.50;6.70;;;;;;;;;;6298029;28;20060;-81
2022/04/30 11:16:13;;;;;;;10.93;6.75;;;;;;;;;;6299189;28;20055;-82
2022/04/30 11:19:21;;;;;;;11.40;7.00;;;;;;;;;;6324650;28;20048;-82
2022/04/30 11:22:23;;;;;;;12.40;7.70;;;;;;;;;;6303205;28;20651;-83
2022/04/30 11:25:38;;;;;;;14.10;7.50;;;;;;;;;;6303349;28;20048;-82
2022/04/30 11:28:40;;;;;;;12.88;7.75;;;;;;;;;;6331579;28;20059;-82
2022/04/30 11:31:43;;;;;;;12.82;7.55;;;;;;;;;;6308638;28;20115;-82
2022/04/30 11:34:45;;;;;;;12.52;7.13;;;;;;;;;;6314755;28;20036;-83
2022/04/30 11:37:46;;;;;;;13.00;7.57;;;;;;;;;;6332670;28;20059;-82
2022/04/30 11:40:48;;;;;;;10.73;6.95;;;;;;;;;;6310663;28;20052;-82
2022/04/30 11:43:59;;;;;;;10.40;6.57;;;;;;;;;;6313627;28;20040;-82
2022/04/30 11:47:01;;;;;;;12.82;7.28;;;;;;;;;;6292911;28;20045;-82
2022/04/30 11:50:05;;;;;;;12.05;7.22;;;;;;;;;;6282596;28;20041;-82
2022/04/30 11:53:07;;;;;;;11.70;7.45;;;;;;;;;;6281478;28;20041;-82
2022/04/30 11:56:09;;;;;;;12.63;7.07;;;;;;;;;;6321155;28;20032;-82
2022/04/30 11:59:11;;;;;;;12.25;7.80;;;;;;;;;;6332998;28;20039;-82
2022/04/30 12:02:15;;;;;;;12.52;7.38;;;;;;;;;;6318817;28;20049;-83
2022/04/30 12:05:18;;;;;;;13.95;7.38;;;;;;;;;;6289052;28;20052;-82
2022/04/30 12:08:27;;;;;;;11.20;7.40;;;;;;;;;;6307242;28;20044;-83
2022/04/30 12:11:39;;;;;;;12.35;6.88;;;;;;;;;;6288194;28;20044;-80
2022/04/30 12:14:47;;;;;;;12.07;7.35;;;;;;;;;;6305941;28;20052;-83
2022/04/30 12:24:42;;;;;;;11.52;6.85;;;;;;;;;;6301092;28;20055;-82
2022/04/30 12:27:55;;;;;;;10.38;6.85;;;;;;;;;;6317164;28;20052;-83
2022/04/30 12:31:14;;;;;;;13.10;6.78;;;;;;;;;;6328271;28;20040;-83
2022/04/30 12:34:25;;;;;;;11.70;7.03;;;;;;;;;;6358168;28;20035;-82
2022/04/30 12:37:34;;;;;;;15.70;8.77;;;;;;;;;;6358051;28;20055;-83
2022/04/30 12:40:44;;;;;;;12.18;6.63;;;;;;;;;;6306904;28;20044;-83
2022/04/30 12:43:46;;;;;;;11.02;6.15;;;;;;;;;;6313474;28;20090;-84
2022/04/30 12:46:49;;;;;;;10.68;6.30;;;;;;;;;;6321447;28;20043;-82
2022/04/30 12:49:51;;;;;;;10.02;6.80;;;;;;;;;;6339671;28;20039;-84
2022/04/30 12:52:53;;;;;;;10.43;7.07;;;;;;;;;;6356903;28;20032;-83
2022/04/30 12:55:55;;;;;;;12.30;6.93;;;;;;;;;;6357454;28;20047;-83
2022/04/30 12:58:56;;;;;;;9.70;6.28;;;;;;;;;;6356668;28;20097;-83
2022/04/30 13:01:58;;;;;;;10.82;6.50;;;;;;;;;;6328885;28;20040;-83
2022/04/30 13:05:00;;;;;;;11.27;6.55;;;;;;;;;;6333251;28;20059;-85
2022/04/30 13:08:02;;;;;;;12.05;6.40;;;;;;;;;;6313617;28;20051;-83
2022/04/30 13:14:24;;;;;;;10.23;6.75;;;;;;;;;;6357419;28;20105;-82
2022/04/30 13:17:26;;;;;;;11.15;6.50;;;;;;;;;;6356110;28;20096;-83
2022/04/30 13:20:29;;;;;;;13.15;6.35;;;;;;;;;;6338002;28;20085;-82
2022/04/30 13:23:31;;;;;;;9.73;6.75;;;;;;;;;;6329482;28;20049;-83
2022/04/30 13:26:33;;;;;;;11.05;6.75;;;;;;;;;;6324148;28;20051;-81
2022/04/30 13:29:35;;;;;;;11.40;6.63;;;;;;;;;;6317810;28;20059;-81
2022/04/30 13:32:37;;;;;;;9.73;6.57;;;;;;;;;;6312295;28;20047;-82
2022/04/30 13:35:39;;;;;;;10.90;7.13;;;;;;;;;;6313754;28;20044;-81
2022/04/30 13:38:42;;;;;;;10.10;7.00;;;;;;;;;;6315224;28;20056;-81
2022/04/30 13:41:43;;;;;;;11.20;6.70;;;;;;;;;;6310901;28;20059;-80
2022/04/30 13:44:45;;;;;;;10.55;7.18;;;;;;;;;;6315789;28;20058;-81
2022/04/30 13:47:50;;;;;;;11.95;6.63;;;;;;;;;;6293995;28;20102;-81
2022/04/30 13:50:52;;;;;;;12.77;6.88;;;;;;;;;;6286211;28;20055;-81
2022/04/30 13:53:54;;;;;;;11.35;7.30;;;;;;;;;;6288905;28;20704;-82
2022/04/30 13:56:56;;;;;;;10.55;6.90;;;;;;;;;;6301457;28;20463;-81
2022/04/30 13:59:58;;;;;;;11.85;7.05;;;;;;;;;;6315959;28;20133;-81
2022/04/30 14:03:01;;;;;;;11.80;6.57;;;;;;;;;;6294077;28;20066;-83
2022/04/30 14:06:03;;;;;;;13.40;7.22;;;;;;;;;;6293485;28;20055;-82
2022/04/30 14:09:04;;;;;;;14.40;7.50;;;;;;;;;;6312126;28;20044;-81
2022/04/30 14:12:07;;;;;;;10.55;6.53;;;;;;;;;;6309529;28;20071;-82
2022/04/30 14:15:10;;;;;;;11.10;6.55;;;;;;;;;;6321712;28;20044;-81
2022/04/30 14:18:24;;;;;;;11.18;7.15;;;;;;;;;;6297948;28;20214;-82
2022/04/30 14:21:26;;;;;;;12.23;7.25;;;;;;;;;;6299658;28;20045;-83
2022/04/30 14:24:27;;;;;;;10.98;6.72;;;;;;;;;;6309815;28;20109;-82
2022/04/30 14:27:29;;;;;;;8.60;5.55;;;;;;;;;;6304613;28;20378;-83
2022/04/30 14:30:33;;;;;;;9.45;6.25;;;;;;;;;;6298881;28;20107;-82
2022/04/30 14:33:36;;;;;;;9.70;6.35;;;;;;;;;;6318177;28;20082;-81
2022/04/30 14:36:40;;;;;;;10.27;6.30;;;;;;;;;;6322689;28;20055;-80
2022/04/30 14:39:42;;;;;;;10.32;6.43;;;;;;;;;;6302141;28;20444;-82
2022/04/30 14:42:45;;;;;;;8.50;6.35;;;;;;;;;;6302896;28;20075;-82
2022/04/30 14:45:47;;;;;;;9.55;6.18;;;;;;;;;;6298247;28;20139;-82
2022/04/30 14:48:54;;;;;;;14.35;11.15;;;;;;;;;;6341175;28;20100;-81
2022/04/30 14:51:56;;;;;;;13.48;9.48;;;;;;;;;;6347854;28;20123;-82
2022/04/30 14:54:58;;;;;;;12.70;7.97;;;;;;;;;;6333919;28;20047;-82
2022/04/30 14:57:59;;;;;;;16.13;11.70;;;;;;;;;;6309713;28;20054;-83
2022/04/30 15:01:01;;;;;;;14.13;8.40;;;;;;;;;;6321164;28;20035;-82
2022/04/30 15:04:03;;;;;;;11.75;6.88;;;;;;;;;;6309415;28;20071;-81
2022/04/30 15:07:05;;;;;;;10.18;6.50;;;;;;;;;;6301161;28;20056;-81
2022/04/30 15:10:07;;;;;;;11.68;6.88;;;;;;;;;;6300983;28;20123;-82
2022/04/30 15:13:09;;;;;;;12.73;7.50;;;;;;;;;;6296337;28;20576;-81
2022/04/30 15:16:11;;;;;;;9.20;7.38;;;;;;;;;;6297320;28;20459;-81
2022/04/30 15:19:14;;;;;;;12.93;7.75;;;;;;;;;;6301116;28;20441;-83
2022/04/30 15:22:16;;;;;;;15.25;8.43;;;;;;;;;;6295492;28;20501;-83
2022/04/30 15:25:18;;;;;;;14.13;7.85;;;;;;;;;;6296665;28;20040;-82
2022/04/30 15:28:20;;;;;;;13.98;7.30;;;;;;;;;;6295632;28;20071;-82
2022/04/30 15:31:22;;;;;;;9.10;6.80;;;;;;;;;;6296421;28;20037;-83
2022/04/30 15:34:24;;;;;;;11.65;7.15;;;;;;;;;;6330535;28;20051;-82
2022/04/30 15:37:26;;;;;;;9.07;6.05;;;;;;;;;;6331071;28;20097;-83
2022/04/30 15:40:27;;;;;;;8.68;5.95;;;;;;;;;;6327037;28;20046;-82
2022/04/30 15:43:30;;;;;;;6.80;5.55;;;;;;;;;;6302448;28;20121;-81
2022/04/30 15:53:11;;;;;;;7.35;5.60;;;;;;;;;;6297682;28;20142;-82
2022/04/30 15:56:14;;;;;;;10.45;5.97;;;;;;;;;;6309611;28;20069;-79
2022/04/30 15:59:17;;;;;;;6.97;5.33;;;;;;;;;;6314843;28;20499;-81
2022/04/30 16:02:20;;;;;;;8.75;6.15;;;;;;;;;;6299154;28;20068;-81
2022/04/30 16:05:22;;;;;;;;;;;;;;;;;;6296026;28;20054;-82
2022/04/30 16:08:24;;;;;;;8.57;5.32;;;;;;;;;;6276515;28;20408;-82
2022/04/30 16:11:27;;;;;;;9.82;5.60;;;;;;;;;;6299564;28;20044;-83
2022/04/30 16:14:29;;;;;;;9.68;6.00;;;;;;;;;;6300606;28;20040;-82
2022/04/30 16:17:31;;;;;;;7.70;5.20;;;;;;;;;;6306567;28;20044;-82
2022/04/30 16:20:33;;;;;;;9.82;6.28;;;;;;;;;;6295577;28;20048;-82
2022/04/30 16:23:36;;;;;;;9.52;5.85;;;;;;;;;;6298775;28;20052;-82
2022/04/30 16:26:38;;;;;;;12.93;6.18;;;;;;;;;;6293604;28;20048;-83
2022/04/30 16:29:40;;;;;;;14.52;6.38;;;;;;;;;;6296103;28;20056;-82
2022/04/30 16:32:43;;;;;;;10.68;6.25;;;;;;;;;;6304488;28;20050;-82
2022/04/30 16:35:45;;;;;;;11.80;6.70;;;;;;;;;;6314918;28;20048;-83
2022/04/30 16:38:47;;;;;;;11.02;6.35;;;;;;;;;;6312603;28;20052;-82
2022/04/30 16:41:48;;;;;;;9.00;6.00;;;;;;;;;;6302306;28;20514;-82
2022/04/30 16:44:50;;;;;;;11.68;5.78;;;;;;;;;;6290384;28;20060;-82
2022/04/30 16:47:56;;;;;;;10.80;6.15;;;;;;;;;;6283382;28;20084;-83
2022/04/30 16:57:04;;;;;;;9.13;6.50;;;;;;;;;;6268306;28;20126;-81
2022/04/30 16:57:41;;;;;;;10.48;6.35;;;;;;;;;;6309565;28;20066;-82
2022/04/30 17:00:48;;;;;;;8.35;6.07;;;;;;;;;;6314869;28;20535;-82
2022/04/30 17:03:50;;;;;;;9.18;6.28;;;;;;;;;;6314406;28;20066;-80
2022/04/30 17:06:52;;;;;;;7.80;5.63;;;;;;;;;;6322739;28;20052;-81
2022/04/30 17:09:55;;;;;;;12.70;7.45;;;;;;;;;;6297872;28;20739;-82
2022/04/30 17:12:57;;;;;;;8.25;5.90;;;;;;;;;;6322253;28;20107;-81
2022/04/30 17:15:59;;;;;;;10.13;6.10;;;;;;;;;;6319751;28;20044;-82
2022/04/30 17:19:01;;;;;;;9.63;6.13;;;;;;;;;;6321333;28;20048;-81
2022/04/30 17:22:03;;;;;;;11.65;6.32;;;;;;;;;;6314527;28;20043;-81
2022/04/30 17:25:05;;;;;;;9.75;6.28;;;;;;;;;;6302092;28;20085;-81
2022/04/30 17:28:07;;;;;;;12.57;8.52;;;;;;;;;;6291873;28;20142;-80
2022/04/30 17:37:58;;;;;;;11.65;10.07;;;;;;;;;;6316554;28;20059;-81
2022/04/30 17:41:00;;;;;;;12.40;8.52;;;;;;;;;;6312234;28;20132;-83
2022/04/30 17:44:03;;;;;;;13.80;9.32;;;;;;;;;;6315952;28;20079;-82
2022/04/30 17:47:06;;;;;;;15.20;7.57;;;;;;;;;;6310199;28;20051;-82
2022/04/30 17:50:09;;;;;;;10.25;6.60;;;;;;;;;;6320243;28;20718;-82
2022/04/30 17:53:11;;;;;;;10.25;6.95;;;;;;;;;;6314413;28;20051;-81
2022/04/30 17:56:15;;;;;;;11.60;8.15;;;;;;;;;;6314616;28;20064;-81
2022/04/30 17:59:18;;;;;;;8.43;6.45;;;;;;;;;;6316588;28;20048;-82
2022/04/30 18:02:21;;;;;;;10.50;6.57;;;;;;;;;;6305029;28;20425;-83
2022/04/30 18:05:23;;;;;;;9.07;7.13;;;;;;;;;;6289380;28;20384;-82
2022/04/30 18:08:25;;;;;;;12.70;6.93;;;;;;;;;;6291772;28;20041;-81
2022/04/30 18:11:27;;;;;;;9.90;7.22;;;;;;;;;;6293459;28;20057;-82
2022/04/30 18:14:28;;;;;;;11.43;7.20;;;;;;;;;;6265140;28;20151;-81
2022/04/30 18:17:30;;;;;;;13.02;7.85;;;;;;;;;;6279982;28;20163;-81
2022/04/30 18:20:36;;;;;;;9.95;7.57;;;;;;;;;;6290137;28;20048;-81
2022/04/30 18:23:38;;;;;;;17.38;7.97;;;;;;;;;;6291165;28;20139;-82
2022/04/30 18:26:39;;;;;;;12.25;7.32;;;;;;;;;;6295506;28;20162;-82
2022/04/30 18:29:41;;;;;;;9.85;8.13;;;;;;;;;;6315299;28;20064;-81
2022/04/30 18:32:43;;;;;;;14.55;9.05;;;;;;;;;;6294600;28;20135;-81
2022/04/30 18:35:45;;;;;;;9.95;7.63;;;;;;;;;;6291421;28;20105;-82
2022/04/30 18:38:47;;;;;;;11.63;7.50;;;;;;;;;;6289836;28;20049;-81
2022/04/30 18:41:50;;;;;;;13.68;7.78;;;;;;;;;;6290671;28;20677;-82
2022/04/30 18:44:52;;;;;;;14.43;8.20;;;;;;;;;;6288613;28;20068;-82
2022/04/30 18:47:54;;;;;;;12.23;8.77;;;;;;;;;;6298042;28;20047;-82
2022/04/30 18:50:56;;;;;;;13.57;9.60;;;;;;;;;;6313228;28;20067;-82
2022/04/30 19:00:58;;;;;;;15.13;9.75;;;;;;;;;;6271300;28;20141;-82
2022/04/30 19:04:00;;;;;;;13.88;8.70;;;;;;;;;;6268420;28;20049;-82
2022/04/30 19:07:02;;;;;;;11.48;8.50;;;;;;;;;;6270302;28;20086;-83
2022/04/30 19:10:05;;;;;;;17.83;10.68;;;;;;;;;;6267929;28;20069;-82
2022/04/30 19:13:07;;;;;;;21.15;12.52;;;;;;;;;;6283466;28;20531;-82
2022/04/30 19:16:09;;;;;;;9.98;8.32;;;;;;;;;;6294439;28;20043;-82